createdAt,value
2023-07-24T00:00:59.971Z,100491.56
2023-07-24T00:03:26.457Z,100501.59
2023-07-24T00:05:52.919Z,100501.72
2023-07-24T00:08:19.396Z,100503.19
2023-07-24T00:10:51.051Z,100497.28
2023-07-24T00:13:17.571Z,100501.78
2023-07-24T00:15:44.174Z,100490.94
2023-07-24T00:18:14.158Z,100490.72
2023-07-24T00:20:43.685Z,100485.03
2023-07-24T00:23:16.539Z,100483.44
2023-07-24T00:25:45.851Z,100486.31
2023-07-24T00:28:20.462Z,100478.66
2023-07-24T00:30:46.946Z,100480.56
2023-07-24T00:33:13.377Z,100482.06
2023-07-24T00:35:43.831Z,100471.50
2023-07-24T00:38:10.365Z,100477.25
2023-07-24T00:40:45.440Z,100481.59
2023-07-24T00:43:14.670Z,100479.38
2023-07-24T00:45:43.906Z,100471.84
2023-07-24T00:48:11.074Z,100468.19
2023-07-24T00:50:38.728Z,100453.28
2023-07-24T00:53:06.005Z,100458.56
2023-07-24T00:55:43.174Z,100447.19
2023-07-24T00:58:21.830Z,100448.19
2023-07-24T01:00:48.292Z,100432.50
2023-07-24T01:03:17.738Z,100439.66
2023-07-24T01:05:47.253Z,100430.28
2023-07-24T01:08:14.736Z,100430.28
2023-07-24T01:10:42.285Z,100435.59
2023-07-24T01:13:24.409Z,100436.63
2023-07-24T01:16:06.352Z,100431.34
2023-07-24T01:18:47.584Z,100447.47
2023-07-24T01:21:18.275Z,100438.25
2023-07-24T01:24:13.606Z,100428.22
2023-07-24T01:26:40.303Z,100430.28
2023-07-24T01:29:12.722Z,100428.69
2023-07-24T01:31:39.278Z,100436.41
2023-07-24T01:34:05.840Z,100434.56
2023-07-24T01:36:36.318Z,100433.75
2023-07-24T01:39:02.959Z,100435.59
2023-07-24T01:41:29.911Z,100427.63
2023-07-24T01:44:00.151Z,100430.28
2023-07-24T01:46:29.710Z,100422.56
2023-07-24T01:49:00.011Z,100415.41
2023-07-24T01:51:30.227Z,100406.63
2023-07-24T01:53:56.675Z,100400.75
2023-07-24T01:56:26.603Z,100398.19
2023-07-24T01:58:55.891Z,100400.47
2023-07-24T02:01:35.300Z,100403.56
2023-07-24T02:04:02.359Z,100397.88
2023-07-24T02:06:32.847Z,100385.44
2023-07-24T02:08:59.241Z,100396.41
2023-07-24T02:11:25.708Z,100389.84
2023-07-24T02:13:56.217Z,100394.72
2023-07-24T02:16:25.563Z,100388.94
2023-07-24T02:24:22.817Z,100382.72
2023-07-24T02:26:49.329Z,100384.53
2023-07-24T02:29:15.899Z,100380.28
2023-07-24T02:31:46.051Z,100374.59
2023-07-24T02:34:12.512Z,100372.97
2023-07-24T02:36:47.437Z,100377.25
2023-07-24T02:39:16.747Z,100372.78
2023-07-24T02:41:50.695Z,100371.94
2023-07-24T02:44:19.946Z,100362.34
2023-07-24T02:46:52.755Z,100362.94
2023-07-24T02:49:22.310Z,100353.97
2023-07-24T02:52:00.607Z,100363.53
2023-07-24T02:54:27.759Z,100366.19
2023-07-24T02:56:59.017Z,100360.91
2023-07-24T02:59:28.526Z,100366.19
2023-07-24T03:01:55.070Z,100353.97
2023-07-24T03:04:21.826Z,100356.63
2023-07-24T03:06:51.416Z,100350.50
2023-07-24T03:09:17.899Z,100356.41
2023-07-24T03:11:44.706Z,100353.75
2023-07-24T03:14:14.321Z,100343.38
2023-07-24T03:16:40.840Z,100347.41
2023-07-24T03:19:10.411Z,100351.91
2023-07-24T03:21:39.975Z,100347.63
2023-07-24T03:24:06.793Z,100338.84
2023-07-24T03:26:35.977Z,100333.56
2023-07-24T03:29:02.449Z,100323.16
2023-07-24T03:31:28.936Z,100323.97
2023-07-24T03:33:58.823Z,100339.31
2023-07-24T03:36:28.521Z,100342.19
2023-07-24T03:38:55.185Z,100341.34
2023-07-24T04:32:00.518Z,100328.72
2023-07-24T04:34:30.395Z,100333.81
2023-07-24T04:36:57.108Z,100337.25
2023-07-24T04:39:25.984Z,100348.44
2023-07-24T04:41:55.472Z,100351.91
2023-07-24T05:36:28.552Z,100350.25
2023-07-24T05:38:55.326Z,100351.03
2023-07-24T05:41:21.789Z,100345.88
2023-07-24T05:46:33.274Z,100343.84
2023-07-24T05:49:02.880Z,100341.88
2023-07-24T05:51:33.117Z,100339.09
2023-07-24T05:54:02.241Z,100338.31
2023-07-24T06:47:02.492Z,100351.66
2023-07-24T06:49:28.948Z,100364.75
2023-07-24T07:42:31.639Z,100352.94
2023-07-24T07:44:58.225Z,100338.91
2023-07-24T07:47:31.876Z,100346.38
2023-07-24T07:50:05.530Z,100338.19
2023-07-24T07:52:35.655Z,100335.91
2023-07-24T07:55:11.546Z,100334.22
2023-07-24T07:57:38.628Z,100336.75
2023-07-24T08:00:06.897Z,100331.81
2023-07-24T08:02:40.602Z,100342.94
2023-07-24T08:05:20.030Z,100327.13
2023-07-24T08:07:57.550Z,100331.41
2023-07-24T08:10:24.049Z,100326.94
2023-07-24T08:12:50.594Z,100333.72
2023-07-24T08:15:17.378Z,100332.25
2023-07-24T08:17:46.778Z,100334.66
2023-07-24T08:20:21.145Z,100335.44
2023-07-24T08:22:47.627Z,100332.50
2023-07-24T08:25:14.149Z,100334.31
2023-07-24T08:28:00.782Z,100330.28
2023-07-24T08:30:33.409Z,100328.63
2023-07-24T08:33:05.519Z,100333.59
2023-07-24T08:35:34.690Z,100327.59
2023-07-24T08:38:01.227Z,100338.50
2023-07-24T08:40:38.998Z,100339.41
2023-07-24T08:43:11.213Z,100342.94
2023-07-24T08:45:40.569Z,100337.16
2023-07-24T08:48:14.760Z,100338.69
2023-07-24T08:50:41.358Z,100335.88
2023-07-24T08:53:08.009Z,100328.91
2023-07-24T08:55:43.433Z,100345.13
2023-07-24T08:58:10.292Z,100329.75
2023-07-24T09:00:47.406Z,100328.03
2023-07-24T09:03:16.261Z,100323.34
2023-07-24T09:05:43.391Z,100328.88
2023-07-24T09:08:12.906Z,100317.31
2023-07-24T09:10:42.500Z,100321.34
2023-07-24T09:13:11.570Z,100309.66
2023-07-24T09:15:43.646Z,100318.78
2023-07-24T09:18:10.848Z,100313.94
2023-07-24T09:20:50.588Z,100315.84
2023-07-24T09:23:31.200Z,100299.25
2023-07-24T09:26:06.686Z,100303.75
2023-07-24T09:28:36.569Z,100302.94
2023-07-24T09:31:03.225Z,100307.13
2023-07-24T09:33:45.036Z,100295.50
2023-07-24T09:36:12.042Z,100302.41
2023-07-24T09:38:47.654Z,100300.19
2023-07-24T09:41:16.003Z,100287.00
2023-07-24T09:43:43.318Z,100287.16
2023-07-24T09:46:13.163Z,100276.44
2023-07-24T09:49:07.584Z,100276.72
2023-07-24T09:51:33.175Z,100280.34
2023-07-24T09:54:29.746Z,100293.19
2023-07-24T09:57:10.734Z,100307.22
2023-07-24T09:59:51.568Z,100314.63
2023-07-24T10:02:22.301Z,100304.38
2023-07-24T10:04:51.697Z,100305.53
2023-07-24T10:07:22.785Z,100296.16
2023-07-24T10:09:53.541Z,100295.31
2023-07-24T10:12:24.633Z,100299.25
2023-07-24T10:14:51.617Z,100308.59
2023-07-24T10:17:41.947Z,100296.28
2023-07-24T10:20:10.604Z,100290.22
2023-07-24T10:22:44.604Z,100294.38
2023-07-24T10:25:12.360Z,100290.94
2023-07-24T10:27:51.972Z,100273.78
2023-07-24T10:30:35.438Z,100272.41
2023-07-24T10:33:19.396Z,100269.88
2023-07-24T10:38:19.172Z,100272.94
2023-07-24T10:40:53.209Z,100279.31
2023-07-24T10:43:21.729Z,100270.31
2023-07-24T10:45:56.216Z,100271.19
2023-07-24T10:48:27.100Z,100281.00
2023-07-24T10:50:54.997Z,100271.63
2023-07-24T10:53:27.741Z,100266.78
2023-07-24T10:55:58.364Z,100266.00
2023-07-24T10:58:28.499Z,100267.09
2023-07-24T11:00:55.121Z,100265.72
2023-07-24T11:03:25.698Z,100256.91
2023-07-24T11:05:52.483Z,100259.81
2023-07-24T11:08:28.189Z,100268.13
2023-07-24T11:10:57.875Z,100260.09
2023-07-24T12:04:59.241Z,100299.13
2023-07-24T12:07:37.534Z,100289.16
2023-07-24T12:10:05.893Z,100286.59
2023-07-24T12:12:47.227Z,100290.16
2023-07-24T13:06:00.331Z,100298.16
2023-07-24T13:08:26.908Z,100303.91
2023-07-24T13:10:56.142Z,100287.19
2023-07-24T13:13:25.734Z,100286.66
2023-07-24T13:15:52.244Z,100284.00
2023-07-24T13:18:27.857Z,100294.91
2023-07-24T13:20:55.501Z,100289.50
2023-07-24T13:23:26.328Z,100302.91
2023-07-24T13:25:56.764Z,100298.97
2023-07-24T13:28:23.614Z,100302.56
2023-07-24T13:30:57.615Z,100302.91
2023-07-24T13:33:30.375Z,100291.38
2023-07-24T13:35:56.946Z,100293.25
2023-07-24T13:38:23.465Z,100288.53
2023-07-24T13:43:34.588Z,100298.09
2023-07-24T13:46:04.224Z,100311.56
2023-07-24T13:48:33.894Z,100303.19
2023-07-24T13:51:00.368Z,100304.66
2023-07-24T13:53:30.955Z,100310.03
2023-07-24T13:58:48.604Z,100314.00
2023-07-24T14:01:15.112Z,100317.16
2023-07-24T14:03:43.068Z,100317.88
2023-07-24T14:06:12.736Z,100306.78
2023-07-24T14:08:39.303Z,100312.59
2023-07-24T14:11:08.806Z,100302.84
2023-07-24T14:13:38.011Z,100303.00
2023-07-24T14:16:07.607Z,100306.53
2023-07-24T14:18:34.110Z,100300.25
2023-07-24T14:21:00.686Z,100292.53
2023-07-24T14:23:27.501Z,100302.69
2023-07-24T14:25:57.122Z,100301.19
2023-07-24T14:28:26.321Z,100307.53
2023-07-24T14:33:34.500Z,100313.16
2023-07-24T14:36:02.007Z,100313.31
2023-07-24T14:38:31.510Z,100316.13
2023-07-24T14:40:58.328Z,100313.72
2023-07-24T14:43:24.741Z,100315.63
2023-07-24T14:45:54.339Z,100313.97
2023-07-24T14:48:22.923Z,100320.66
2023-07-24T14:50:50.730Z,100326.06
2023-07-24T14:53:17.138Z,100328.03
2023-07-24T14:55:44.128Z,100326.47
2023-07-24T14:58:13.097Z,100335.63
2023-07-24T15:00:42.710Z,100333.84
2023-07-24T15:03:17.790Z,100342.03
2023-07-24T15:05:44.300Z,100342.03
2023-07-24T15:08:10.771Z,100345.91
2023-07-24T15:10:40.207Z,100347.84
2023-07-24T15:13:11.183Z,100351.19
2023-07-24T15:18:25.907Z,100335.06
2023-07-24T15:20:56.129Z,100346.72
2023-07-24T15:23:25.631Z,100346.84
2023-07-24T15:25:55.136Z,100355.16
2023-07-24T15:28:21.825Z,100357.41
2023-07-24T15:30:51.402Z,100359.88
2023-07-24T15:33:19.008Z,100361.47
2023-07-24T15:35:45.864Z,100370.91
2023-07-24T15:38:15.877Z,100366.78
2023-07-24T15:40:42.567Z,100372.78
2023-07-24T15:43:10.756Z,100374.41
2023-07-24T15:45:38.242Z,100371.34
2023-07-24T15:48:07.639Z,100379.41
2023-07-24T15:50:35.595Z,100387.13
2023-07-24T15:53:03.666Z,100385.66
2023-07-24T15:55:30.197Z,100389.19
2023-07-24T15:57:56.639Z,100389.75
2023-07-24T16:00:30.711Z,100401.81
2023-07-24T16:02:57.675Z,100393.81
2023-07-24T16:05:26.868Z,100407.69
2023-07-24T16:07:57.321Z,100406.69
2023-07-24T16:10:24.029Z,100401.81
2023-07-24T16:12:53.571Z,100413.69
2023-07-24T16:15:44.235Z,100418.78
2023-07-24T16:18:06.975Z,100427.47
2023-07-24T16:20:42.534Z,100432.13
2023-07-24T16:23:08.984Z,100443.13
2023-07-24T16:25:39.759Z,100446.50
2023-07-24T16:28:08.991Z,100461.31
2023-07-24T16:30:37.424Z,100449.69
2023-07-24T16:33:04.474Z,100472.97
2023-07-24T16:35:32.381Z,100475.91
2023-07-24T16:38:07.807Z,100493.97
2023-07-24T16:40:38.383Z,100484.09
2023-07-24T16:48:33.662Z,100504.56
2023-07-24T16:51:04.354Z,100511.47
2023-07-24T16:53:34.775Z,100511.84
2023-07-24T16:56:01.268Z,100518.63
2023-07-24T16:58:27.674Z,100520.91
2023-07-24T17:01:06.279Z,100523.09
2023-07-24T17:03:35.496Z,100532.16
2023-07-24T17:06:01.996Z,100533.59
2023-07-24T17:08:28.464Z,100529.34
2023-07-24T17:10:54.964Z,100535.34
2023-07-24T17:13:24.600Z,100540.09
2023-07-24T17:15:53.817Z,100545.34
2023-07-24T17:18:22.649Z,100541.31
2023-07-24T17:20:54.885Z,100544.50
2023-07-24T17:23:21.365Z,100540.13
2023-07-24T17:25:51.678Z,100542.72
2023-07-24T17:28:21.092Z,100543.16
2023-07-24T17:30:48.708Z,100558.59
2023-07-24T17:33:24.540Z,100548.19
2023-07-24T17:36:18.398Z,100558.00
2023-07-24T17:38:44.858Z,100562.81
2023-07-24T17:41:11.980Z,100559.97
2023-07-24T17:43:42.483Z,100559.56
2023-07-24T17:46:08.963Z,100562.53
2023-07-24T17:48:38.308Z,100568.81
2023-07-24T17:51:09.915Z,100570.59
2023-07-24T17:53:36.424Z,100577.78
2023-07-24T17:56:03.864Z,100578.22
2023-07-24T17:58:30.406Z,100579.78
2023-07-24T18:00:57.032Z,100581.41
2023-07-24T18:03:23.928Z,100591.06
2023-07-24T18:05:51.217Z,100588.81
2023-07-24T18:08:21.300Z,100591.06
2023-07-24T18:10:47.825Z,100581.09
2023-07-24T18:13:17.399Z,100589.28
2023-07-24T18:15:43.810Z,100584.56
2023-07-24T18:18:10.334Z,100591.91
2023-07-24T18:20:40.430Z,100594.16
2023-07-24T18:23:10.080Z,100601.88
2023-07-24T18:25:43.009Z,100599.66
2023-07-24T18:28:13.244Z,100599.44
2023-07-24T18:30:42.887Z,100605.19
2023-07-24T18:33:11.521Z,100607.63
2023-07-24T18:35:38.101Z,100615.41
2023-07-24T18:38:10.314Z,100614.59
2023-07-24T18:40:37.222Z,100616.00
2023-07-24T18:43:03.709Z,100605.25
2023-07-24T18:45:33.160Z,100618.47
2023-07-24T18:48:03.152Z,100630.09
2023-07-24T19:40:16.418Z,100675.22
2023-07-24T19:42:43.269Z,100680.72
2023-07-24T19:45:09.915Z,100676.84
2023-07-24T19:47:39.850Z,100685.81
2023-07-24T19:50:09.517Z,100686.84
2023-07-24T19:52:39.488Z,100680.13
2023-07-24T19:55:11.179Z,100689.72
2023-07-24T19:57:38.760Z,100694.59
2023-07-24T20:00:10.988Z,100704.56
2023-07-24T20:02:37.647Z,100699.88
2023-07-24T20:05:10.147Z,100711.50
2023-07-24T20:07:36.671Z,100715.56
2023-07-24T20:10:03.243Z,100717.41
2023-07-24T20:12:40.247Z,100719.44
2023-07-24T20:15:14.815Z,100725.75
2023-07-24T20:17:44.261Z,100723.09
2023-07-24T20:20:16.203Z,100721.66
2023-07-24T20:22:45.590Z,100727.16
2023-07-24T20:25:19.688Z,100730.63
2023-07-24T20:27:49.212Z,100729.81
2023-07-24T20:30:15.661Z,100726.75
2023-07-24T20:32:44.838Z,100734.91
2023-07-24T20:35:11.442Z,100740.59
2023-07-24T20:37:38.022Z,100743.19
2023-07-24T20:40:08.755Z,100752.72
2023-07-24T20:42:35.196Z,100749.06
2023-07-24T20:45:01.818Z,100750.66
2023-07-24T20:50:18.125Z,100760.59
2023-07-24T20:52:44.640Z,100759.75
2023-07-24T20:55:15.215Z,100764.84
2023-07-24T20:57:44.705Z,100766.41
2023-07-24T21:00:14.872Z,100759.28
2023-07-24T21:02:41.639Z,100772.25
2023-07-24T21:05:12.032Z,100771.25
2023-07-24T21:07:42.629Z,100769.38
2023-07-24T21:10:15.133Z,100768.31
2023-07-24T21:12:45.743Z,100774.19
2023-07-24T21:15:12.252Z,100770.50
2023-07-24T21:17:38.866Z,100767.63
2023-07-24T21:20:14.085Z,100777.13
2023-07-24T21:22:40.507Z,100771.63
2023-07-24T21:25:11.702Z,100772.00
2023-07-24T21:27:41.133Z,100769.94
2023-07-24T21:30:29.703Z,100782.69
2023-07-24T21:33:00.323Z,100775.34
2023-07-24T21:35:26.986Z,100776.72
2023-07-24T21:37:58.019Z,100782.38
2023-07-24T21:40:27.517Z,100772.22
2023-07-24T21:45:43.180Z,100773.16
2023-07-24T21:48:09.791Z,100768.28
2023-07-24T21:50:44.529Z,100777.38
2023-07-24T21:53:14.070Z,100770.03
2023-07-24T21:55:48.904Z,100773.25
2023-07-24T21:58:15.627Z,100770.34
2023-07-24T22:00:42.445Z,100770.72
2023-07-24T22:03:12.071Z,100773.13
2023-07-24T22:05:38.542Z,100778.75
2023-07-24T22:08:05.359Z,100781.97
2023-07-24T22:10:35.130Z,100782.16
2023-07-24T22:13:04.671Z,100781.72
2023-07-24T22:15:39.638Z,100781.66
2023-07-24T22:18:10.002Z,100777.38
2023-07-24T22:28:45.435Z,100783.78
2023-07-24T22:31:12.278Z,100783.13
2023-07-24T22:33:38.943Z,100785.78
2023-07-24T22:36:13.329Z,100782.91
2023-07-24T22:38:39.833Z,100776.34
2023-07-24T22:41:13.273Z,100768.63
2023-07-24T22:43:43.594Z,100777.56
2023-07-24T22:46:18.761Z,100780.19
2023-07-24T22:48:46.546Z,100770.25
2023-07-24T22:51:13.044Z,100769.66
2023-07-24T22:53:39.459Z,100778.72
2023-07-24T22:56:09.655Z,100773.63
2023-07-24T22:59:00.466Z,100776.28
2023-07-24T23:01:31.170Z,100774.00
2023-07-24T23:04:02.049Z,100777.84
2023-07-24T23:06:31.508Z,100776.56
2023-07-24T23:08:58.194Z,100775.88
2023-07-24T23:11:33.940Z,100779.66
2023-07-24T23:14:00.944Z,100774.78
2023-07-24T23:16:30.848Z,100773.97
2023-07-24T23:18:57.431Z,100771.69
2023-07-24T23:21:23.970Z,100779.94
2023-07-24T23:23:53.909Z,100771.31
2023-07-24T23:26:23.205Z,100783.41
2023-07-24T23:28:53.340Z,100787.03
2023-07-24T23:31:22.242Z,100782.31
2023-07-24T23:33:48.680Z,100793.03
2023-07-24T23:36:24.918Z,100784.66
2023-07-24T23:38:51.398Z,100795.75
2023-07-24T23:41:18.165Z,100787.56
2023-07-24T23:43:45.828Z,100783.84
2023-07-24T23:46:16.784Z,100782.41
2023-07-24T23:48:46.382Z,100786.00
2023-07-24T23:51:17.765Z,100788.00
2023-07-24T23:53:44.771Z,100793.00
2023-07-24T23:56:11.875Z,100792.19
2023-07-24T23:58:38.831Z,100791.09
